Perry Square, Pennsylvania
Current Conditions -  °F | °C
As of 10:51 PM on Wednesday 28 Jan 2015 (Local Time) from KERI Reporting Station
Clear Clear  
Wind Chill: 20°   Ceiling: Unl
Heat Index: 20°   Visibility: 10mi
Dew Point:   Wind: 0mph
Humidity: 46%   Direction: NA
Pressure: 30.26"   Gusts: NA
Location:  42.1361°N, 80.0826°W
Report Text: KERI 290351Z 00000KT 10SM CLR M07/M17 A3026 RMK AO2 SLP260 T10671167
Loading
Personal Weather Stations






























Interactive Weather Map New forecast layout! Learn more

10-Day Weather Forecast

Advertisements
Track Severe Weather on mobile